createdAt,value
2017-08-08T00:00:00.941Z,14.10
2017-08-08T00:02:28.570Z,14.20
2017-08-08T00:04:56.266Z,14.10
2017-08-08T00:07:24.685Z,14.10
2017-08-08T00:09:52.298Z,14.10
2017-08-08T00:12:19.968Z,14.10
2017-08-08T00:14:47.732Z,14.10
2017-08-08T00:17:16.122Z,14.00
2017-08-08T00:19:43.800Z,14.00
2017-08-08T00:22:11.456Z,14.10
2017-08-08T00:24:39.071Z,14.10
2017-08-08T00:27:06.734Z,14.10
2017-08-08T00:29:34.351Z,14.00
2017-08-08T00:32:01.977Z,14.00
2017-08-08T00:34:29.673Z,13.90
2017-08-08T00:36:57.316Z,13.80
2017-08-08T00:39:25.033Z,13.80
2017-08-08T00:41:52.723Z,13.80
2017-08-08T00:44:20.563Z,13.70
2017-08-08T00:46:48.335Z,13.70
2017-08-08T00:49:16.008Z,13.70
2017-08-08T00:51:43.630Z,13.70
2017-08-08T00:54:11.513Z,13.60
2017-08-08T00:56:39.189Z,13.70
2017-08-08T00:59:06.808Z,13.70
2017-08-08T01:01:35.057Z,13.70
2017-08-08T01:04:02.730Z,13.60
2017-08-08T01:06:30.416Z,13.60
2017-08-08T01:08:58.921Z,13.60
2017-08-08T01:11:26.905Z,13.60
2017-08-08T01:13:54.677Z,13.60
2017-08-08T01:16:22.302Z,13.50
2017-08-08T01:18:50.941Z,13.50
2017-08-08T01:21:19.857Z,13.40
2017-08-08T01:23:48.246Z,13.40
2017-08-08T01:26:15.960Z,13.30
2017-08-08T01:28:43.722Z,13.30
2017-08-08T01:31:11.489Z,13.30
2017-08-08T01:33:39.169Z,13.30
2017-08-08T01:36:07.399Z,13.20
2017-08-08T01:38:35.041Z,13.20
2017-08-08T01:41:02.741Z,13.20
2017-08-08T01:43:30.390Z,13.20
2017-08-08T01:45:58.040Z,13.20
2017-08-08T01:48:26.550Z,13.30
2017-08-08T01:50:54.214Z,13.40
2017-08-08T01:53:21.872Z,13.40
2017-08-08T01:55:49.564Z,13.30
2017-08-08T01:58:17.205Z,13.30
2017-08-08T02:00:44.912Z,13.30
2017-08-08T02:03:12.812Z,13.30
2017-08-08T02:05:40.514Z,13.20
2017-08-08T02:08:08.181Z,13.10
2017-08-08T02:10:35.926Z,13.10
2017-08-08T02:13:03.566Z,13.00
2017-08-08T02:15:31.221Z,13.00
2017-08-08T02:17:58.929Z,13.00
2017-08-08T02:20:26.801Z,13.00
2017-08-08T02:22:54.469Z,12.90
2017-08-08T02:25:22.882Z,12.90
2017-08-08T02:27:50.709Z,12.90
2017-08-08T02:30:18.403Z,12.80
2017-08-08T02:32:46.107Z,12.80
2017-08-08T02:35:13.776Z,12.80
2017-08-08T02:37:41.401Z,12.80
2017-08-08T02:40:10.443Z,12.90
2017-08-08T02:42:38.058Z,12.90
2017-08-08T02:45:06.616Z,12.90
2017-08-08T02:47:34.290Z,12.90
2017-08-08T02:50:02.136Z,12.80
2017-08-08T02:52:29.801Z,12.90
2017-08-08T02:54:57.475Z,12.80
2017-08-08T02:57:25.105Z,12.90
2017-08-08T02:59:53.390Z,12.90
2017-08-08T03:02:21.060Z,12.90
2017-08-08T03:04:48.682Z,12.90
2017-08-08T03:07:16.589Z,12.90
2017-08-08T03:09:44.281Z,12.90
2017-08-08T03:12:11.914Z,12.90
2017-08-08T03:14:39.528Z,12.90
2017-08-08T03:17:07.241Z,13.00
2017-08-08T03:19:35.169Z,13.00
2017-08-08T03:22:02.797Z,13.00
2017-08-08T03:24:30.483Z,12.90
2017-08-08T03:26:58.105Z,12.90
2017-08-08T03:29:25.728Z,12.80
2017-08-08T03:31:53.419Z,12.70
2017-08-08T03:34:21.305Z,12.60
2017-08-08T03:36:48.928Z,12.60
2017-08-08T03:39:16.830Z,12.50
2017-08-08T03:41:44.794Z,12.50
2017-08-08T03:44:12.425Z,12.50
2017-08-08T03:46:40.096Z,12.40
2017-08-08T03:49:07.756Z,12.40
2017-08-08T03:51:35.381Z,12.40
2017-08-08T03:54:03.808Z,12.40
2017-08-08T03:56:31.435Z,12.40
2017-08-08T03:58:59.064Z,12.40
2017-08-08T04:01:27.354Z,12.30
2017-08-08T04:03:54.978Z,12.30
2017-08-08T04:06:23.193Z,12.30
2017-08-08T04:08:51.950Z,12.30
2017-08-08T04:11:20.599Z,12.20
2017-08-08T04:13:48.241Z,12.20
2017-08-08T04:16:16.080Z,12.20
2017-08-08T04:18:43.712Z,12.20
2017-08-08T04:21:11.608Z,12.20
2017-08-08T04:23:39.288Z,12.30
2017-08-08T04:26:06.925Z,12.30
2017-08-08T04:28:34.565Z,12.30
2017-08-08T04:31:02.253Z,12.30
2017-08-08T04:33:29.892Z,12.40
2017-08-08T04:35:57.521Z,12.40
2017-08-08T04:38:25.215Z,12.50
2017-08-08T04:40:52.842Z,12.50
2017-08-08T04:43:21.241Z,12.60
2017-08-08T04:45:48.900Z,12.60
2017-08-08T04:48:16.534Z,12.70
2017-08-08T04:50:44.153Z,12.80
2017-08-08T04:53:11.837Z,12.80
2017-08-08T04:55:39.462Z,12.90
2017-08-08T04:58:07.082Z,13.00
2017-08-08T05:00:34.766Z,13.20
2017-08-08T05:03:02.705Z,13.20
2017-08-08T05:05:30.332Z,13.30
2017-08-08T05:07:58.015Z,13.30
2017-08-08T05:10:26.309Z,13.40
2017-08-08T05:12:53.933Z,13.40
2017-08-08T05:15:21.924Z,13.50
2017-08-08T05:17:49.540Z,13.60
2017-08-08T05:20:17.162Z,13.70
2017-08-08T05:22:44.856Z,13.80
2017-08-08T05:25:13.512Z,14.10
2017-08-08T05:27:41.282Z,14.10
2017-08-08T05:30:09.025Z,14.30
2017-08-08T05:32:36.676Z,14.50
2017-08-08T05:35:04.357Z,14.80
2017-08-08T05:37:32.029Z,15.00
2017-08-08T05:39:59.639Z,15.10
2017-08-08T05:42:27.256Z,15.30
2017-08-08T05:44:54.924Z,15.50
2017-08-08T05:47:22.620Z,15.70
2017-08-08T05:49:50.249Z,15.90
2017-08-08T05:52:17.946Z,16.10
2017-08-08T05:54:45.564Z,16.20
2017-08-08T05:57:13.197Z,16.40
2017-08-08T05:59:40.901Z,16.60
2017-08-08T06:02:08.541Z,16.90
2017-08-08T06:04:36.311Z,17.10
2017-08-08T06:07:04.385Z,17.20
2017-08-08T06:09:32.153Z,17.30
2017-08-08T06:11:59.768Z,17.50
2017-08-08T06:14:27.462Z,17.70
2017-08-08T06:16:55.092Z,17.90
2017-08-08T06:19:23.744Z,18.30
2017-08-08T06:21:51.428Z,18.20
2017-08-08T06:24:19.053Z,18.50
2017-08-08T06:26:46.683Z,18.60
2017-08-08T06:29:14.342Z,18.70
2017-08-08T06:31:42.046Z,18.90
2017-08-08T06:34:10.568Z,19.10
2017-08-08T06:36:38.242Z,19.30
2017-08-08T06:39:05.866Z,19.40
2017-08-08T06:41:34.017Z,19.60
2017-08-08T06:44:01.772Z,19.70
2017-08-08T06:46:29.398Z,19.70
2017-08-08T06:48:57.278Z,19.70
2017-08-08T06:51:24.956Z,19.90
2017-08-08T06:53:52.589Z,20.00
2017-08-08T06:56:20.223Z,20.10
2017-08-08T06:58:48.133Z,20.10
2017-08-08T07:01:15.764Z,20.50
2017-08-08T07:03:43.395Z,20.80
2017-08-08T07:06:11.689Z,21.00
2017-08-08T07:08:39.318Z,21.10
2017-08-08T07:11:07.123Z,21.50
2017-08-08T07:13:34.803Z,21.70
2017-08-08T07:16:02.445Z,21.90
2017-08-08T07:18:30.063Z,22.10
2017-08-08T07:20:57.737Z,22.20
2017-08-08T07:23:25.349Z,22.20
2017-08-08T07:25:53.417Z,22.30
2017-08-08T07:28:21.482Z,22.70
2017-08-08T07:30:49.125Z,22.80
2017-08-08T07:33:16.781Z,22.70
2017-08-08T07:35:44.469Z,22.80
2017-08-08T07:38:12.105Z,23.00
2017-08-08T07:40:39.725Z,23.20
2017-08-08T07:43:07.392Z,23.20
2017-08-08T07:45:35.013Z,23.30
2017-08-08T07:48:02.645Z,23.60
2017-08-08T07:50:30.320Z,23.60
2017-08-08T07:52:57.949Z,23.80
2017-08-08T07:55:26.329Z,24.00
2017-08-08T07:57:54.779Z,24.10
2017-08-08T08:00:22.425Z,24.10
2017-08-08T08:02:50.045Z,24.30
2017-08-08T08:05:17.712Z,24.30
2017-08-08T08:07:45.417Z,24.60
2017-08-08T08:10:13.043Z,24.80
2017-08-08T08:12:40.809Z,25.00
2017-08-08T08:15:08.430Z,25.00
2017-08-08T08:17:36.107Z,25.30
2017-08-08T08:20:04.005Z,25.30
2017-08-08T08:22:31.624Z,25.30
2017-08-08T08:24:59.478Z,25.10
2017-08-08T08:27:27.342Z,25.30
2017-08-08T08:29:54.968Z,25.50
2017-08-08T08:32:22.605Z,25.80
2017-08-08T08:34:50.495Z,26.00
2017-08-08T08:37:18.101Z,26.20
2017-08-08T08:39:46.064Z,26.40
2017-08-08T08:42:13.725Z,26.50
2017-08-08T08:44:41.328Z,26.30
2017-08-08T08:47:09.725Z,26.50
2017-08-08T08:49:37.403Z,26.50
2017-08-08T08:52:05.027Z,26.80
2017-08-08T08:54:32.654Z,27.10
2017-08-08T08:57:00.319Z,27.10
2017-08-08T08:59:28.378Z,27.20
2017-08-08T09:01:56.047Z,27.30
2017-08-08T09:04:23.725Z,27.50
2017-08-08T09:06:51.348Z,27.60
2017-08-08T09:09:19.257Z,27.90
2017-08-08T09:11:47.725Z,27.90
2017-08-08T09:14:15.349Z,27.70
2017-08-08T09:16:42.973Z,27.40
2017-08-08T09:19:10.926Z,27.20
2017-08-08T09:21:38.546Z,27.30
2017-08-08T09:24:06.172Z,27.10
2017-08-08T09:26:33.980Z,27.10
2017-08-08T09:29:01.779Z,27.20
2017-08-08T09:31:29.395Z,27.20
2017-08-08T09:33:57.061Z,27.30
2017-08-08T09:36:24.681Z,27.40
2017-08-08T09:38:52.525Z,27.80
2017-08-08T09:41:20.205Z,28.20
2017-08-08T09:43:47.822Z,28.30
2017-08-08T09:46:15.448Z,28.50
2017-08-08T09:48:43.124Z,28.70
2017-08-08T09:51:10.735Z,28.60
2017-08-08T09:53:38.366Z,28.20
2017-08-08T09:56:06.026Z,27.90
2017-08-08T09:58:33.636Z,27.80
2017-08-08T10:01:01.245Z,27.60
2017-08-08T10:03:28.869Z,27.40
2017-08-08T10:05:56.626Z,27.40
2017-08-08T10:08:24.253Z,27.60
2017-08-08T10:10:52.041Z,27.60
2017-08-08T10:13:19.657Z,27.60
2017-08-08T10:15:48.304Z,27.90
2017-08-08T10:18:16.167Z,27.90
2017-08-08T10:20:43.780Z,28.00
2017-08-08T10:23:11.393Z,28.00
2017-08-08T10:25:39.100Z,28.00
2017-08-08T10:28:07.484Z,27.90
2017-08-08T10:30:35.874Z,27.80
2017-08-08T10:33:03.545Z,27.80
2017-08-08T10:35:31.164Z,27.80
2017-08-08T10:37:58.785Z,27.80
2017-08-08T10:40:26.765Z,28.00
2017-08-08T10:42:54.385Z,28.10
2017-08-08T10:45:22.117Z,28.20
2017-08-08T10:47:49.931Z,28.30
2017-08-08T10:50:17.548Z,28.40
2017-08-08T10:52:45.169Z,28.40
2017-08-08T10:55:12.834Z,28.30
2017-08-08T10:57:40.456Z,28.20
2017-08-08T11:00:08.251Z,28.00
2017-08-08T11:02:35.940Z,28.00
2017-08-08T11:05:03.561Z,27.90
2017-08-08T11:07:31.327Z,27.90
2017-08-08T11:09:59.019Z,27.90
2017-08-08T11:12:26.638Z,28.00
2017-08-08T11:14:55.077Z,28.00
2017-08-08T11:17:23.125Z,28.00
2017-08-08T11:19:50.742Z,28.10
2017-08-08T11:22:18.585Z,28.20
2017-08-08T11:24:46.337Z,28.20
2017-08-08T11:27:14.207Z,28.20
2017-08-08T11:29:41.825Z,28.30
2017-08-08T11:32:09.496Z,28.30
2017-08-08T11:34:37.198Z,28.30
2017-08-08T11:37:04.829Z,28.20
2017-08-08T11:39:32.488Z,28.20
2017-08-08T11:42:00.400Z,28.10
2017-08-08T11:44:28.016Z,28.00
2017-08-08T11:46:55.705Z,27.90
2017-08-08T11:49:23.341Z,27.90
2017-08-08T11:51:50.967Z,28.00
2017-08-08T11:54:18.670Z,28.10
2017-08-08T11:56:46.293Z,28.20
2017-08-08T11:59:14.105Z,28.30
2017-08-08T12:01:41.764Z,28.30
2017-08-08T12:04:09.390Z,28.20
2017-08-08T12:06:37.002Z,28.20
2017-08-08T12:09:04.723Z,28.20
2017-08-08T12:11:32.453Z,28.20
2017-08-08T12:14:00.088Z,28.10
2017-08-08T12:16:27.741Z,28.20
2017-08-08T12:18:55.413Z,28.20
2017-08-08T12:21:23.037Z,28.30
2017-08-08T12:23:50.721Z,28.20
2017-08-08T12:26:18.349Z,28.20
2017-08-08T12:28:45.967Z,28.20
2017-08-08T12:31:13.633Z,28.20
2017-08-08T12:33:41.248Z,28.30
2017-08-08T12:36:09.008Z,28.30
2017-08-08T12:38:36.926Z,28.20
2017-08-08T12:41:04.764Z,28.10
2017-08-08T12:43:32.934Z,28.00
2017-08-08T12:46:00.770Z,27.90
2017-08-08T12:48:28.383Z,27.80
2017-08-08T12:50:56.000Z,27.80
2017-08-08T12:53:23.684Z,27.60
2017-08-08T12:55:51.443Z,27.60
2017-08-08T12:58:19.048Z,27.50
2017-08-08T13:00:46.704Z,27.50
2017-08-08T13:03:14.521Z,27.50
2017-08-08T13:05:42.144Z,27.50
2017-08-08T13:08:09.831Z,27.60
2017-08-08T13:10:37.467Z,27.50
2017-08-08T13:13:05.811Z,27.50
2017-08-08T13:15:33.503Z,27.60
2017-08-08T13:18:01.124Z,27.70
2017-08-08T13:20:28.753Z,27.50
2017-08-08T13:22:56.638Z,27.40
2017-08-08T13:25:24.259Z,27.30
2017-08-08T13:27:51.867Z,27.10
2017-08-08T13:30:19.678Z,27.00
2017-08-08T13:32:47.493Z,27.00
2017-08-08T13:35:15.110Z,27.10
2017-08-08T13:37:42.784Z,27.10
2017-08-08T13:40:10.392Z,27.10
2017-08-08T13:42:38.010Z,27.00
2017-08-08T13:45:05.695Z,26.90
2017-08-08T13:47:33.680Z,26.80
2017-08-08T13:50:02.163Z,26.80
2017-08-08T13:52:29.925Z,26.70
2017-08-08T13:54:57.557Z,26.60
2017-08-08T13:57:25.208Z,26.50
2017-08-08T13:59:53.485Z,26.50
2017-08-08T14:02:21.136Z,26.60
2017-08-08T14:04:48.749Z,26.60
2017-08-08T14:07:16.424Z,26.60
2017-08-08T14:09:44.042Z,26.60
2017-08-08T14:12:11.668Z,26.60
2017-08-08T14:14:40.103Z,26.50
2017-08-08T14:17:07.724Z,26.50
2017-08-08T14:19:35.650Z,26.50
2017-08-08T14:22:03.316Z,26.40
2017-08-08T14:24:31.227Z,26.30
2017-08-08T14:26:58.844Z,26.20
2017-08-08T14:29:26.527Z,26.10
2017-08-08T14:31:55.474Z,26.00
2017-08-08T14:34:23.101Z,25.80
2017-08-08T14:36:51.524Z,25.60
2017-08-08T14:39:19.160Z,25.60
2017-08-08T14:41:46.773Z,25.60
2017-08-08T14:44:14.715Z,25.50
2017-08-08T14:46:42.336Z,25.40
2017-08-08T14:49:10.340Z,25.30
2017-08-08T14:51:38.045Z,25.20
2017-08-08T14:54:05.667Z,25.20
2017-08-08T14:56:33.304Z,25.20
2017-08-08T14:59:01.736Z,25.10
2017-08-08T15:01:29.356Z,25.10
2017-08-08T15:03:56.980Z,25.00
2017-08-08T15:06:24.705Z,24.90
2017-08-08T15:08:52.333Z,24.90
2017-08-08T15:11:19.957Z,24.90
2017-08-08T15:13:47.624Z,24.80
2017-08-08T15:16:15.257Z,24.70
2017-08-08T15:18:43.210Z,24.60
2017-08-08T15:21:10.872Z,24.40
2017-08-08T15:23:38.492Z,24.30
2017-08-08T15:26:06.100Z,24.20
2017-08-08T15:28:33.756Z,24.00
2017-08-08T15:31:01.377Z,23.90
2017-08-08T15:33:29.010Z,23.70
2017-08-08T15:35:56.705Z,23.60
2017-08-08T15:38:24.713Z,23.40
2017-08-08T15:40:52.428Z,23.40
2017-08-08T15:43:20.265Z,23.30
2017-08-08T15:45:48.051Z,23.20
2017-08-08T15:48:15.660Z,23.10
2017-08-08T15:50:43.336Z,23.00
2017-08-08T15:53:10.961Z,22.90
2017-08-08T15:55:38.598Z,22.80
2017-08-08T15:58:06.256Z,22.80
2017-08-08T16:00:34.033Z,22.70
2017-08-08T16:03:01.674Z,22.60
2017-08-08T16:05:29.355Z,22.50
2017-08-08T16:07:56.964Z,22.40
2017-08-08T16:10:25.357Z,22.30
2017-08-08T16:12:53.162Z,22.20
2017-08-08T16:15:20.796Z,22.20
2017-08-08T16:17:48.417Z,22.10
2017-08-08T16:20:16.194Z,22.00
2017-08-08T16:22:43.824Z,21.90
2017-08-08T16:25:11.441Z,21.80
2017-08-08T16:27:39.125Z,21.80
2017-08-08T16:30:06.749Z,21.80
2017-08-08T16:32:34.377Z,21.70
2017-08-08T16:35:02.437Z,21.60
2017-08-08T16:37:30.057Z,21.50
2017-08-08T16:39:57.668Z,21.40
2017-08-08T16:42:25.337Z,21.30
2017-08-08T16:44:52.961Z,21.00
2017-08-08T16:47:20.590Z,20.50
2017-08-08T16:49:49.248Z,19.60
2017-08-08T16:52:16.861Z,19.50
2017-08-08T16:54:44.562Z,19.10
2017-08-08T16:57:12.222Z,18.80
2017-08-08T16:59:39.836Z,18.50
2017-08-08T17:02:07.458Z,18.40
2017-08-08T17:04:35.144Z,18.20
2017-08-08T17:07:02.781Z,18.00
2017-08-08T17:09:30.404Z,17.90
2017-08-08T17:11:58.088Z,17.80
2017-08-08T17:14:25.982Z,17.80
2017-08-08T17:16:54.759Z,17.80
2017-08-08T17:19:22.433Z,17.80
2017-08-08T17:21:50.256Z,17.80
2017-08-08T17:24:17.877Z,17.80
2017-08-08T17:26:45.578Z,17.80
2017-08-08T17:29:13.192Z,17.90
2017-08-08T17:31:40.964Z,17.80
2017-08-08T17:34:08.622Z,17.90
2017-08-08T17:36:36.241Z,17.90
2017-08-08T17:39:03.981Z,17.90
2017-08-08T17:41:33.040Z,18.00
2017-08-08T17:44:00.662Z,18.00
2017-08-08T17:46:28.279Z,18.00
2017-08-08T17:48:55.924Z,18.00
2017-08-08T17:51:23.545Z,18.00
2017-08-08T17:53:51.171Z,18.00
2017-08-08T17:56:19.014Z,18.00
2017-08-08T17:58:46.632Z,18.00
2017-08-08T18:01:14.826Z,18.00
2017-08-08T18:03:43.191Z,18.00
2017-08-08T18:06:11.276Z,18.00
2017-08-08T18:08:39.293Z,18.10
2017-08-08T18:11:07.965Z,18.10
2017-08-08T18:13:36.140Z,18.10
2017-08-08T18:16:03.992Z,18.10
2017-08-08T18:18:31.689Z,18.10
2017-08-08T18:21:00.351Z,18.10
2017-08-08T18:23:28.249Z,18.10
2017-08-08T18:25:56.187Z,18.20
2017-08-08T18:28:23.955Z,18.20
2017-08-08T18:30:51.765Z,18.10
2017-08-08T18:33:20.702Z,18.20
2017-08-08T18:35:50.082Z,18.20
2017-08-08T18:38:18.605Z,18.10
2017-08-08T18:40:46.490Z,18.20
2017-08-08T18:43:14.526Z,18.30
2017-08-08T18:45:43.531Z,18.30
2017-08-08T18:48:11.205Z,18.40
2017-08-08T18:50:38.872Z,18.40
2017-08-08T18:53:06.563Z,18.40
2017-08-08T18:55:34.593Z,18.40
2017-08-08T18:58:02.948Z,18.30
2017-08-08T19:00:31.029Z,18.30
2017-08-08T19:02:59.090Z,18.30
2017-08-08T19:05:26.909Z,18.30
2017-08-08T19:07:55.335Z,18.30
2017-08-08T19:10:23.117Z,18.20
2017-08-08T19:12:50.777Z,18.20
2017-08-08T19:15:19.171Z,18.20
2017-08-08T19:17:46.884Z,18.20
2017-08-08T19:20:15.273Z,18.20
2017-08-08T19:22:42.993Z,18.20
2017-08-08T19:25:10.721Z,18.20
2017-08-08T19:27:39.271Z,18.20
2017-08-08T19:30:07.472Z,18.20
2017-08-08T19:32:35.186Z,18.20
2017-08-08T19:35:02.859Z,18.10
2017-08-08T19:37:31.397Z,17.80
2017-08-08T19:39:59.465Z,17.50
2017-08-08T19:42:27.425Z,17.30
2017-08-08T19:44:55.667Z,17.10
2017-08-08T19:47:23.829Z,16.90
2017-08-08T19:49:52.180Z,16.80
2017-08-08T19:52:20.067Z,16.80
2017-08-08T19:54:48.296Z,16.70
2017-08-08T19:57:16.540Z,16.70
2017-08-08T19:59:44.568Z,16.70
2017-08-08T20:02:13.078Z,16.70
2017-08-08T20:04:41.684Z,16.70
2017-08-08T20:07:09.595Z,16.70
2017-08-08T20:09:37.787Z,16.60
2017-08-08T20:12:05.400Z,16.60
2017-08-08T20:14:33.780Z,16.60
2017-08-08T20:17:02.488Z,16.50
2017-08-08T20:19:30.099Z,16.50
2017-08-08T20:22:00.127Z,16.50
2017-08-08T20:24:28.121Z,16.40
2017-08-08T20:26:57.034Z,16.40
2017-08-08T20:29:25.043Z,16.40
2017-08-08T20:31:52.925Z,16.30
2017-08-08T20:34:21.168Z,16.30
2017-08-08T20:36:49.872Z,16.30
2017-08-08T20:39:19.492Z,16.20
2017-08-08T20:41:49.112Z,16.30
2017-08-08T20:44:17.182Z,16.20
2017-08-08T20:46:45.531Z,16.20
2017-08-08T20:49:13.614Z,16.20
2017-08-08T20:51:41.870Z,16.10
2017-08-08T20:54:10.113Z,16.10
2017-08-08T20:56:38.244Z,16.10
2017-08-08T20:59:06.310Z,16.10
2017-08-08T21:01:34.953Z,16.10
2017-08-08T21:04:03.521Z,16.10
2017-08-08T21:06:31.908Z,15.90
2017-08-08T21:09:01.159Z,15.90
2017-08-08T21:11:28.964Z,15.90
2017-08-08T21:13:56.802Z,15.90
2017-08-08T21:16:26.111Z,15.80
2017-08-08T21:18:54.856Z,15.80
2017-08-08T21:21:23.321Z,15.80
2017-08-08T21:23:51.993Z,15.70
2017-08-08T21:26:19.620Z,15.60
2017-08-08T21:28:47.249Z,15.60
2017-08-08T21:31:14.909Z,15.60
2017-08-08T21:33:42.521Z,15.60
2017-08-08T21:36:10.886Z,15.60
2017-08-08T21:38:38.737Z,15.60
2017-08-08T21:41:06.415Z,15.50
2017-08-08T21:43:34.031Z,15.50
2017-08-08T21:46:02.252Z,15.60
2017-08-08T21:48:29.884Z,15.60
2017-08-08T21:50:57.512Z,15.60
2017-08-08T21:53:25.932Z,15.70
2017-08-08T21:55:53.536Z,15.60
2017-08-08T21:58:21.318Z,15.70
2017-08-08T22:00:48.983Z,15.70
2017-08-08T22:03:16.600Z,15.70
2017-08-08T22:05:44.204Z,15.70
2017-08-08T22:08:11.865Z,15.70
2017-08-08T22:10:40.250Z,15.70
2017-08-08T22:13:08.671Z,15.70
2017-08-08T22:15:36.740Z,15.70
2017-08-08T22:18:04.357Z,15.70
2017-08-08T22:20:31.977Z,15.70
2017-08-08T22:22:59.749Z,15.80
2017-08-08T22:25:27.356Z,15.80
2017-08-08T22:27:55.524Z,15.80
2017-08-08T22:30:25.009Z,15.70
2017-08-08T22:32:52.641Z,15.60
2017-08-08T22:35:20.521Z,15.60
2017-08-08T22:37:48.181Z,15.70
2017-08-08T22:40:15.796Z,15.70
2017-08-08T22:42:43.629Z,15.70
2017-08-08T22:45:11.302Z,15.60
2017-08-08T22:47:39.101Z,15.60
2017-08-08T22:50:06.722Z,15.60
2017-08-08T22:52:34.692Z,15.60
2017-08-08T22:55:02.830Z,15.60
2017-08-08T22:57:30.448Z,15.60
2017-08-08T22:59:58.113Z,15.60
2017-08-08T23:02:25.736Z,15.60
2017-08-08T23:04:53.516Z,15.60
2017-08-08T23:07:21.177Z,15.50
2017-08-08T23:09:49.052Z,15.60
2017-08-08T23:12:16.668Z,15.50
2017-08-08T23:14:44.645Z,15.50
2017-08-08T23:17:12.261Z,15.60
2017-08-08T23:19:39.868Z,15.60
2017-08-08T23:22:07.575Z,15.70
2017-08-08T23:24:35.206Z,15.70
2017-08-08T23:27:02.816Z,15.70
2017-08-08T23:29:30.500Z,15.70
2017-08-08T23:31:58.116Z,15.70
2017-08-08T23:34:25.728Z,15.80
2017-08-08T23:36:53.404Z,15.80
2017-08-08T23:39:21.016Z,15.70
2017-08-08T23:41:48.696Z,15.70
2017-08-08T23:44:16.840Z,15.70
2017-08-08T23:46:44.696Z,15.60
2017-08-08T23:49:12.313Z,15.60
2017-08-08T23:51:39.984Z,15.60
2017-08-08T23:54:08.205Z,15.60
2017-08-08T23:56:35.824Z,15.60
2017-08-08T23:59:03.497Z,15.60
